Time;durP1;ratioP1;P1;durP2;ratioP2;P2;SDS_P1;SDS_P2;PMS_P1;PMS_P2;Temp;Humidity;BMP_temperature;BMP_pressure;BME280_temperature;BME280_humidity;BME280_pressure;Samples;Min_cycle;Max_cycle;Signal;HPM_P1;HPM_P2
2022/12/18 00:01:37;;;;;;;106.88;32.92;;;;;;;;;;5068530;28;20501;-60
2022/12/18 00:04:04;;;;;;;109.18;33.78;;;;;;;;;;5086728;28;20344;-57
2022/12/18 00:06:30;;;;;;;116.95;34.53;;;;;;;;;;5068810;28;20105;-59
2022/12/18 00:08:58;;;;;;;100.88;32.63;;;;;;;;;;5082686;28;20051;-60
2022/12/18 00:11:25;;;;;;;113.10;33.50;;;;;;;;;;5068633;28;20056;-60
2022/12/18 00:13:51;;;;;;;67.82;23.15;;;;;;;;;;5087089;28;20479;-59
2022/12/18 00:16:20;;;;;;;112.38;35.30;;;;;;;;;;5091942;28;20122;-60
2022/12/18 00:18:46;;;;;;;116.60;33.08;;;;;;;;;;5095464;28;20047;-59
2022/12/18 00:21:13;;;;;;;108.50;34.28;;;;;;;;;;5086552;28;20117;-59
2022/12/18 00:23:40;;;;;;;110.53;28.33;;;;;;;;;;5086738;28;20387;-60
2022/12/18 00:26:07;;;;;;;104.65;30.70;;;;;;;;;;5086465;28;20513;-59
2022/12/18 00:28:34;;;;;;;111.75;34.67;;;;;;;;;;5076720;28;20127;-59
2022/12/18 00:31:07;;;;;;;90.72;27.50;;;;;;;;;;5087880;28;20048;-60
2022/12/18 00:33:33;;;;;;;100.03;30.95;;;;;;;;;;5086869;28;20459;-56
2022/12/18 00:36:06;;;;;;;104.30;31.40;;;;;;;;;;5086720;28;20123;-58
2022/12/18 00:38:32;;;;;;;104.80;32.20;;;;;;;;;;5072590;28;20652;-55
2022/12/18 00:40:58;;;;;;;105.65;33.22;;;;;;;;;;5086632;28;20371;-56
2022/12/18 00:43:24;;;;;;;94.47;31.20;;;;;;;;;;5086733;28;20040;-59
2022/12/18 00:45:50;;;;;;;102.80;30.92;;;;;;;;;;5086820;28;20040;-57
2022/12/18 00:48:16;;;;;;;73.50;25.45;;;;;;;;;;5086363;28;20048;-59
2022/12/18 00:50:42;;;;;;;103.40;30.75;;;;;;;;;;5086554;28;20044;-59
2022/12/18 00:53:11;;;;;;;100.82;31.95;;;;;;;;;;5100663;28;20084;-59
2022/12/18 00:55:41;;;;;;;82.65;25.85;;;;;;;;;;5068008;28;20093;-60
2022/12/18 00:58:07;;;;;;;92.63;27.67;;;;;;;;;;5089695;28;20048;-58
2022/12/18 01:00:33;;;;;;;109.30;31.98;;;;;;;;;;5085882;28;20047;-56
2022/12/18 01:02:59;;;;;;;106.43;31.60;;;;;;;;;;5090226;28;20134;-60
2022/12/18 01:05:25;;;;;;;65.32;20.95;;;;;;;;;;5090268;28;20071;-60
2022/12/18 01:07:51;;;;;;;95.65;30.88;;;;;;;;;;5099822;28;20156;-60
2022/12/18 01:10:17;;;;;;;96.80;29.80;;;;;;;;;;5080704;28;20052;-57
2022/12/18 01:12:43;;;;;;;99.50;32.03;;;;;;;;;;5090110;28;20438;-59
2022/12/18 01:15:10;;;;;;;94.63;28.85;;;;;;;;;;5069551;28;20032;-60
2022/12/18 01:17:36;;;;;;;93.78;29.27;;;;;;;;;;5086287;28;20599;-60
2022/12/18 01:20:02;;;;;;;83.75;28.80;;;;;;;;;;5071817;28;20073;-60
2022/12/18 01:22:28;;;;;;;90.55;27.60;;;;;;;;;;5090417;28;20489;-60
2022/12/18 01:24:54;;;;;;;87.57;28.30;;;;;;;;;;5089912;28;20043;-60
2022/12/18 01:27:20;;;;;;;86.80;28.73;;;;;;;;;;5071796;28;20118;-59
2022/12/18 01:29:46;;;;;;;81.88;28.83;;;;;;;;;;5089770;28;20143;-60
2022/12/18 01:32:12;;;;;;;90.25;28.83;;;;;;;;;;5081856;28;20511;-59
2022/12/18 01:34:38;;;;;;;100.40;28.67;;;;;;;;;;5093941;28;20044;-60
2022/12/18 01:37:05;;;;;;;89.63;29.92;;;;;;;;;;5071617;28;20052;-59
2022/12/18 01:39:31;;;;;;;94.40;31.70;;;;;;;;;;5089852;28;20054;-60
2022/12/18 01:42:04;;;;;;;84.53;24.50;;;;;;;;;;5103562;28;20036;-59
2022/12/18 01:44:48;;;;;;;84.95;27.50;;;;;;;;;;5089865;28;20036;-59
2022/12/18 01:47:18;;;;;;;93.05;28.35;;;;;;;;;;5077450;28;20135;-60
2022/12/18 01:49:44;;;;;;;98.45;29.98;;;;;;;;;;5089503;28;20147;-58
2022/12/18 01:52:10;;;;;;;93.40;31.25;;;;;;;;;;5089757;28;20147;-60
2022/12/18 01:54:36;;;;;;;98.57;32.28;;;;;;;;;;5089957;28;20036;-60
2022/12/18 01:57:02;;;;;;;95.75;30.60;;;;;;;;;;5089775;28;20032;-60
2022/12/18 01:59:29;;;;;;;102.53;30.85;;;;;;;;;;5100438;28;20096;-60
2022/12/18 02:01:55;;;;;;;96.80;29.88;;;;;;;;;;5092884;28;20035;-60
2022/12/18 02:04:26;;;;;;;100.50;31.88;;;;;;;;;;5089413;28;20044;-59
2022/12/18 02:07:01;;;;;;;106.20;34.05;;;;;;;;;;5071360;28;20452;-58
2022/12/18 02:09:27;;;;;;;;;;;;;;;;;;5104084;28;20046;-59
2022/12/18 02:12:09;;;;;;;69.88;21.27;;;;;;;;;;5071093;28;20378;-59
2022/12/18 02:14:39;;;;;;;85.18;28.38;;;;;;;;;;5071205;28;20058;-59
2022/12/18 02:17:12;;;;;;;84.30;27.83;;;;;;;;;;5071094;28;20051;-59
2022/12/18 02:19:56;;;;;;;98.15;35.45;;;;;;;;;;5089255;28;20040;-58
2022/12/18 02:22:41;;;;;;;94.72;30.88;;;;;;;;;;5070793;28;20047;-57
2022/12/18 02:25:17;;;;;;;90.32;30.20;;;;;;;;;;5076569;28;20435;-59
2022/12/18 02:27:45;;;;;;;87.45;29.20;;;;;;;;;;5089673;28;20044;-59
2022/12/18 02:30:12;;;;;;;87.07;28.40;;;;;;;;;;5078236;28;20110;-60
2022/12/18 02:32:42;;;;;;;88.78;29.38;;;;;;;;;;5088811;28;20089;-59
2022/12/18 02:35:13;;;;;;;97.20;29.92;;;;;;;;;;5081269;28;20121;-58
2022/12/18 02:37:40;;;;;;;85.70;30.90;;;;;;;;;;5109007;28;20481;-58
2022/12/18 02:40:07;;;;;;;97.90;33.10;;;;;;;;;;5094506;28;20044;-59
2022/12/18 02:42:33;;;;;;;94.50;31.63;;;;;;;;;;5097530;28;20052;-57
2022/12/18 02:44:59;;;;;;;83.90;28.30;;;;;;;;;;5088692;28;20032;-57
2022/12/18 02:47:31;;;;;;;85.32;31.38;;;-3.60;99.90;;;;;;5088667;28;20048;-57
2022/12/18 02:50:03;;;;;;;99.45;33.22;;;;;;;;;;5087470;28;20536;-59
2022/12/18 02:52:38;;;;;;;78.82;25.73;;;;;;;;;;5088416;28;20043;-57
2022/12/18 02:55:13;;;;;;;86.97;30.42;;;;;;;;;;5070158;28;20055;-57
2022/12/18 02:57:56;;;;;;;98.85;31.45;;;;;;;;;;5088149;28;20036;-57
2022/12/18 03:00:25;;;;;;;82.70;30.75;;;;;;;;;;5074399;28;20110;-59
2022/12/18 03:03:05;;;;;;;90.10;28.90;;;;;;;;;;5070552;28;20051;-57
2022/12/18 03:05:33;;;;;;;88.93;27.80;;;;;;;;;;5075183;28;20039;-59
2022/12/18 03:08:05;;;;;;;62.65;22.90;;;;;;;;;;5088134;28;20514;-56
2022/12/18 03:10:33;;;;;;;85.43;28.50;;;;;;;;;;5088092;28;20050;-58
2022/12/18 03:13:05;;;;;;;79.88;28.83;;;;;;;;;;5088357;28;20044;-56
2022/12/18 03:15:34;;;;;;;70.85;28.05;;;;;;;;;;5070214;28;20847;-56
2022/12/18 03:18:03;;;;;;;81.07;26.98;;;;;;;;;;5069865;28;20040;-53
2022/12/18 03:20:31;;;;;;;77.90;24.25;;;;;;;;;;5087778;28;20040;-56
2022/12/18 03:23:04;;;;;;;75.68;27.38;;;;;;;;;;5070397;28;20039;-57
2022/12/18 03:25:30;;;;;;;73.68;27.27;;;;;;;;;;5088087;28;20054;-57
2022/12/18 03:27:59;;;;;;;68.13;26.77;;;;;;;;;;5087932;28;20036;-58
2022/12/18 03:30:26;;;;;;;72.18;26.13;;;;;;;;;;5087558;28;20092;-55
2022/12/18 03:33:14;;;;;;;73.13;25.92;;;-4.30;99.90;;;;;;5087826;28;20395;-58
2022/12/18 03:35:42;;;;;;;72.88;27.27;;;;;;;;;;5052879;28;20043;-54
2022/12/18 03:38:08;;;;;;;65.13;24.58;;;;;;;;;;5069622;28;20136;-58
2022/12/18 03:40:50;;;;;;;69.22;24.63;;;;;;;;;;5069190;28;20512;-56
2022/12/18 03:43:36;;;;;;;67.97;25.15;;;;;;;;;;5087780;28;20068;-56
2022/12/18 03:46:02;;;;;;;;;;;;;;;;;;5087908;28;20036;-57
2022/12/18 03:48:44;;;;;;;63.45;24.40;;;;;;;;;;5087415;28;20408;-57
2022/12/18 03:51:15;;;;;;;60.35;24.25;;;;;;;;;;5087143;28;20093;-57
2022/12/18 03:53:47;;;;;;;57.25;21.35;;;;;;;;;;5087447;28;20048;-55
2022/12/18 03:56:14;;;;;;;62.75;23.27;;;;;;;;;;5068938;28;20047;-59
2022/12/18 03:58:41;;;;;;;42.20;17.95;;;;;;;;;;5087320;28;20044;-56
2022/12/18 04:01:07;;;;;;;69.72;23.77;;;;;;;;;;5080451;28;20052;-57
2022/12/18 04:03:34;;;;;;;62.05;21.63;;;;;;;;;;5069105;28;20131;-56
2022/12/18 04:06:01;;;;;;;63.97;22.25;;;;;;;;;;5069296;28;20097;-57
2022/12/18 04:08:27;;;;;;;65.60;24.15;;;;;;;;;;5087297;28;20510;-56
2022/12/18 04:10:53;;;;;;;58.10;22.48;;;;;;;;;;5087614;28;20051;-57
2022/12/18 04:13:23;;;;;;;64.88;21.85;;;;;;;;;;5069497;28;20387;-56
2022/12/18 04:15:49;;;;;;;65.38;21.55;;;;;;;;;;5087769;28;20036;-56
2022/12/18 04:18:15;;;;;;;58.65;20.48;;;;;;;;;;5087256;28;20048;-57
2022/12/18 04:20:41;;;;;;;66.82;23.50;;;;;;;;;;5087889;28;20493;-55
2022/12/18 04:23:07;;;;;;;59.33;21.75;;;;;;;;;;5069433;28;20386;-55
2022/12/18 04:25:33;;;;;;;64.35;23.40;;;;;;;;;;5087586;28;20043;-59
2022/12/18 04:27:59;;;;;;;60.15;22.70;;;;;;;;;;5087198;28;20040;-57
2022/12/18 04:30:25;;;;;;;68.00;23.00;;;;;;;;;;5087896;28;20087;-55
2022/12/18 04:32:51;;;;;;;63.00;21.83;;;;;;;;;;5072924;28;20417;-57
2022/12/18 04:35:17;;;;;;;66.15;23.08;;;;;;;;;;5091187;28;20077;-53
2022/12/18 04:37:43;;;;;;;43.83;18.48;;;;;;;;;;5091567;28;20040;-55
2022/12/18 04:40:09;;;;;;;57.67;20.67;;;;;;;;;;5091418;28;20542;-58
2022/12/18 04:42:35;;;;;;;60.85;22.77;;;;;;;;;;5091295;28;20036;-57
2022/12/18 04:45:01;;;;;;;53.72;23.25;;;;;;;;;;5073183;28;20044;-58
2022/12/18 04:47:27;;;;;;;63.45;21.40;;;;;;;;;;5090906;28;20032;-56
2022/12/18 04:49:53;;;;;;;53.90;19.35;;;;;;;;;;5090931;28;20050;-53
2022/12/18 04:52:19;;;;;;;70.88;23.42;;;;;;;;;;5091056;28;20497;-57
2022/12/18 04:54:45;;;;;;;55.60;21.10;;;;;;;;;;5072707;28;20113;-55
2022/12/18 04:57:11;;;;;;;65.50;22.10;;;;;;;;;;5090995;28;20581;-57
2022/12/18 04:59:37;;;;;;;63.70;20.38;;;;;;;;;;5086429;28;20126;-54
2022/12/18 05:02:03;;;;;;;68.68;21.75;;;;;;;;;;5072339;28;20474;-55
2022/12/18 05:04:29;;;;;;;63.38;21.90;;;;;;;;;;5072346;28;20147;-60
2022/12/18 05:06:54;;;;;;;56.22;22.52;;;;;;;;;;5090417;28;20043;-59
2022/12/18 05:09:20;;;;;;;58.67;21.90;;;;;;;;;;5090641;28;20472;-57
2022/12/18 05:11:46;;;;;;;69.15;22.73;;;;;;;;;;5090357;28;20040;-56
2022/12/18 05:14:12;;;;;;;46.47;16.52;;;;;;;;;;5090649;28;20036;-57
2022/12/18 05:16:38;;;;;;;59.38;21.85;;;;;;;;;;5090254;28;20036;-59
2022/12/18 05:19:04;;;;;;;57.45;22.30;;;;;;;;;;5090683;28;20051;-59
2022/12/18 05:21:30;;;;;;;58.78;20.65;;;;;;;;;;5090325;28;20391;-60
2022/12/18 05:23:56;;;;;;;60.53;20.17;;;;;;;;;;5090526;28;20036;-58
2022/12/18 05:26:23;;;;;;;57.65;19.48;;;;;;;;;;5090262;28;20089;-60
2022/12/18 05:28:49;;;;;;;47.78;16.98;;;;;;;;;;5090103;28;20097;-57
2022/12/18 05:31:15;;;;;;;58.05;20.98;;;;;;;;;;5090298;28;20542;-59
2022/12/18 05:33:41;;;;;;;43.33;16.88;;;;;;;;;;5090248;28;20054;-59
2022/12/18 05:36:08;;;;;;;54.80;18.77;;;;;;;;;;5090663;28;20044;-60
2022/12/18 05:38:35;;;;;;;56.80;20.33;;;;;;;;;;5090543;28;20046;-59
2022/12/18 05:41:01;;;;;;;57.35;22.05;;;;;;;;;;5090768;28;20386;-59
2022/12/18 05:43:27;;;;;;;61.65;20.40;;;;;;;;;;5090300;28;20513;-58
2022/12/18 05:45:54;;;;;;;65.82;20.85;;;;;;;;;;5090418;28;20393;-56
2022/12/18 05:48:20;;;;;;;60.97;22.92;;;;;;;;;;5090376;28;20117;-57
2022/12/18 05:50:47;;;;;;;52.22;19.05;;;;;;;;;;5090602;28;20470;-57
2022/12/18 05:53:14;;;;;;;56.55;20.90;;;;;;;;;;5090411;28;20121;-56
2022/12/18 05:55:40;;;;;;;56.10;21.67;;;;;;;;;;5090226;28;20093;-58
2022/12/18 05:58:08;;;;;;;59.20;20.02;;;;;;;;;;5089693;28;20040;-54
2022/12/18 06:00:35;;;;;;;58.50;19.85;;;;;;;;;;5071929;28;20036;-57
2022/12/18 06:03:01;;;;;;;54.50;20.70;;;;;;;;;;5089771;28;20155;-59
2022/12/18 06:05:27;;;;;;;53.17;20.17;;;;;;;;;;5089749;28;20115;-55
2022/12/18 06:07:53;;;;;;;56.00;19.40;;;;;;;;;;5089597;28;20102;-56
2022/12/18 06:10:19;;;;;;;53.15;19.40;;;;;;;;;;5089240;28;20024;-57
2022/12/18 06:12:45;;;;;;;59.25;21.08;;;;;;;;;;5089294;28;20040;-58
2022/12/18 06:15:12;;;;;;;50.53;19.15;;;;;;;;;;5089019;28;20047;-59
2022/12/18 06:17:38;;;;;;;60.53;19.80;;;;;;;;;;5089347;28;20043;-55
2022/12/18 06:20:04;;;;;;;56.90;20.73;;;;;;;;;;5070798;28;20052;-55
2022/12/18 06:22:34;;;;;;;57.08;20.45;;;;;;;;;;5089281;28;20036;-56
2022/12/18 06:25:00;;;;;;;39.53;14.50;;;;;;;;;;5089221;28;20086;-54
2022/12/18 06:27:26;;;;;;;49.00;18.95;;;;;;;;;;5071048;28;20434;-56
2022/12/18 06:29:52;;;;;;;61.63;21.92;;;;;;;;;;5070560;28;20060;-56
2022/12/18 06:32:18;;;;;;;58.80;20.92;;;;;;;;;;5088710;28;20051;-59
2022/12/18 06:34:44;;;;;;;52.00;19.45;;;;;;;;;;5088945;28;20047;-54
2022/12/18 06:37:10;;;;;;;59.10;20.30;;;;;;;;;;5088890;28;20036;-56
2022/12/18 06:39:36;;;;;;;47.53;15.63;;;;;;;;;;5070701;28;20133;-59
2022/12/18 06:42:03;;;;;;;48.53;18.73;;;;;;;;;;5088866;28;20044;-57
2022/12/18 06:44:29;;;;;;;57.88;19.08;;;;;;;;;;5070929;28;20398;-56
2022/12/18 06:46:55;;;;;;;51.40;19.45;;;;;;;;;;5070304;28;20036;-57
2022/12/18 06:49:21;;;;;;;47.15;18.30;;;;;;;;;;5088594;28;20362;-59
2022/12/18 06:51:47;;;;;;;44.75;17.23;;;;;;;;;;5053694;28;20059;-58
2022/12/18 06:54:13;;;;;;;45.80;17.77;;;;;;;;;;5068977;28;20409;-56
2022/12/18 06:56:39;;;;;;;49.78;19.17;;;;;;;;;;5088324;28;20044;-57
2022/12/18 06:59:05;;;;;;;42.97;15.82;;;;;;;;;;5088115;28;20535;-57
2022/12/18 07:01:31;;;;;;;43.78;18.48;;;;;;;;;;5088021;28;20473;-56
2022/12/18 07:03:58;;;;;;;49.78;18.85;;;;;;;;;;5088063;28;20044;-57
2022/12/18 07:06:25;;;;;;;49.10;18.50;;;;;;;;;;5088093;28;20473;-56
2022/12/18 07:08:51;;;;;;;47.17;16.42;;;;;;;;;;5088157;28;20055;-57
2022/12/18 07:11:18;;;;;;;38.90;16.10;;;;;;;;;;5069702;28;20134;-59
2022/12/18 07:13:45;;;;;;;35.92;13.68;;;;;;;;;;5069863;28;20063;-58
2022/12/18 07:16:15;;;;;;;47.47;17.42;;;;;;;;;;5069614;28;20074;-57
2022/12/18 07:18:41;;;;;;;47.47;17.80;;;;;;;;;;5087918;28;20043;-57
2022/12/18 07:21:08;;;;;;;46.05;17.08;;;;;;;;;;5088022;28;20040;-58
2022/12/18 07:23:35;;;;;;;42.60;15.63;;;;;;;;;;5087865;28;20047;-57
2022/12/18 07:26:02;;;;;;;45.28;16.63;;;;;;;;;;5088010;28;20035;-59
2022/12/18 07:28:28;;;;;;;39.42;15.73;;;;;;;;;;5087795;28;20446;-59
2022/12/18 07:30:54;;;;;;;33.78;13.45;;;;;;;;;;5087809;28;20409;-58
2022/12/18 07:33:20;;;;;;;35.88;16.02;;;;;;;;;;5096583;28;20071;-59
2022/12/18 07:35:46;;;;;;;39.42;15.48;;;;;;;;;;5087511;28;20028;-57
2022/12/18 07:38:12;;;;;;;32.65;13.00;;;;;;;;;;5087769;28;20446;-60
2022/12/18 07:40:38;;;;;;;31.40;14.43;;;;;;;;;;5101113;28;20032;-61
2022/12/18 07:43:04;;;;;;;48.63;15.70;;;;;;;;;;5103111;28;20031;-60
2022/12/18 07:45:30;;;;;;;41.72;15.70;;;;;;;;;;5091486;28;20050;-60
2022/12/18 07:47:56;;;;;;;40.30;16.65;;;;;;;;;;5097274;28;20036;-60
2022/12/18 07:50:21;;;;;;;42.45;16.95;;;;;;;;;;5097066;28;20448;-60
2022/12/18 07:52:47;;;;;;;34.42;14.50;;;;;;;;;;5080397;28;20036;-60
2022/12/18 07:55:13;;;;;;;38.38;15.30;;;;;;;;;;5099937;28;20042;-58
2022/12/18 07:57:39;;;;;;;40.42;13.48;;;;;;;;;;5081158;28;20374;-60
2022/12/18 08:00:06;;;;;;;44.53;15.88;;;;;;;;;;5087127;28;20051;-60
2022/12/18 08:02:32;;;;;;;43.38;15.48;;;;;;;;;;5086917;28;20040;-60
2022/12/18 08:04:58;;;;;;;33.22;15.57;;;;;;;;;;5068112;28;20448;-60
2022/12/18 08:07:24;;;;;;;34.33;13.88;;;;;;;;;;5068583;28;20040;-60
2022/12/18 08:09:50;;;;;;;35.58;15.05;;;;;;;;;;5077498;28;20044;-60
2022/12/18 08:12:16;;;;;;;33.50;14.30;;;;;;;;;;5068465;28;20473;-59
2022/12/18 08:14:42;;;;;;;40.90;16.27;;;;;;;;;;5086673;28;20055;-59
2022/12/18 08:17:08;;;;;;;30.35;13.48;;;;;;;;;;5084926;28;20113;-59
2022/12/18 08:19:34;;;;;;;35.20;14.57;;;;;;;;;;5074705;28;20051;-59
2022/12/18 08:22:00;;;;;;;28.73;12.63;;;;;;;;;;5084977;28;20464;-62
2022/12/18 08:24:26;;;;;;;35.45;14.93;;;;;;;;;;5068540;28;20044;-61
2022/12/18 08:26:52;;;;;;;35.67;14.68;;;;;;;;;;5086327;28;20044;-62
2022/12/18 08:29:18;;;;;;;31.63;13.20;;;;;;;;;;5086342;28;20047;-61
2022/12/18 08:31:43;;;;;;;28.20;12.95;;;;;;;;;;5080957;28;20056;-61
2022/12/18 08:34:09;;;;;;;34.97;13.35;;;;;;;;;;5074440;28;20055;-63
2022/12/18 08:36:35;;;;;;;29.60;13.10;;;;;;;;;;5087655;28;20035;-62
2022/12/18 08:39:01;;;;;;;27.80;12.40;;;;;;;;;;5077811;28;20492;-62
2022/12/18 08:41:27;;;;;;;33.38;13.98;;;;;;;;;;5083916;28;20126;-60
2022/12/18 08:46:39;;;;;;;28.80;13.45;;;;;;;;;;5102489;28;20617;-62
2022/12/18 08:49:06;;;;;;;32.42;15.13;;;;;;;;;;5084260;28;20048;-63
2022/12/18 08:51:32;;;;;;;29.10;14.50;;;;;;;;;;5081189;28;20557;-63
2022/12/18 08:53:58;;;;;;;28.58;14.02;;;;;;;;;;5070992;28;20047;-62
2022/12/18 08:56:24;;;;;;;30.15;13.40;;;;;;;;;;5086210;28;20176;-63
2022/12/18 08:58:54;;;;;;;30.17;14.18;;;;;;;;;;5068430;28;20054;-63
2022/12/18 09:01:20;;;;;;;24.95;11.90;;;;;;;;;;5086423;28;20127;-63
2022/12/18 09:03:46;;;;;;;30.20;13.45;;;;;;;;;;5099907;28;20036;-63
2022/12/18 09:06:14;;;;;;;27.27;13.85;;;;;;;;;;5085062;28;20494;-63
2022/12/18 09:08:40;;;;;;;29.55;14.35;;;;;;;;;;5102728;28;20393;-63
2022/12/18 09:11:12;;;;;;;21.67;10.75;;;;;;;;;;5091662;28;20046;-63
2022/12/18 09:13:38;;;;;;;26.08;12.13;;;;;;;;;;5088097;28;20071;-61
2022/12/18 09:16:04;;;;;;;31.67;13.93;;;;;;;;;;5069983;28;20097;-62
2022/12/18 09:18:30;;;;;;;25.23;13.23;;;;;;;;;;5070080;28;20090;-63
2022/12/18 09:20:56;;;;;;;27.58;13.23;;;;;;;;;;5073884;28;20081;-63
2022/12/18 09:23:22;;;;;;;25.25;13.57;;;;;;;;;;5075375;28;20082;-64
2022/12/18 09:25:48;;;;;;;31.98;13.35;;;;;;;;;;5103510;28;20043;-62
2022/12/18 09:28:15;;;;;;;32.08;12.65;;;;;;;;;;5108753;28;20039;-60
2022/12/18 09:30:42;;;;;;;26.17;12.80;;;;;;;;;;5105244;28;20509;-59
2022/12/18 09:33:08;;;;;;;29.27;13.02;;;;;;;;;;5103795;28;20043;-60
2022/12/18 09:35:38;;;;;;;24.60;13.00;;;;;;;;;;5089062;28;20046;-59
2022/12/18 09:38:04;;;;;;;20.85;10.85;;;;;;;;;;5104306;28;20032;-60
2022/12/18 09:40:34;;;;;;;22.73;11.68;;;;;;;;;;5103521;28;20035;-61
2022/12/18 09:43:03;;;;;;;31.73;12.85;;;;;;;;;;5088632;28;20523;-60
2022/12/18 09:45:31;;;;;;;22.70;10.95;;;;;;;;;;5096920;28;20413;-61
2022/12/18 09:47:57;;;;;;;25.08;11.13;;;;;;;;;;5105002;28;20058;-61
2022/12/18 09:50:32;;;;;;;24.38;12.05;;;;;;;;;;5101881;28;20114;-60
2022/12/18 09:53:00;;;;;;;23.40;11.50;;;;;;;;;;5101712;28;20043;-60
2022/12/18 09:55:31;;;;;;;21.08;10.80;;;;;;;;;;5082701;28;20035;-60
2022/12/18 09:58:01;;;;;;;24.02;12.00;;;;;;;;;;5090925;28;20047;-61
2022/12/18 10:00:27;;;;;;;23.30;10.98;;;;;;;;;;5097928;28;20043;-61
2022/12/18 10:02:59;;;;;;;16.77;8.65;;;;;;;;;;5082068;28;20035;-61
2022/12/18 10:05:37;;;;;;;23.92;10.82;;;;;;;;;;5106219;28;20676;-61
2022/12/18 10:08:06;;;;;;;19.17;9.45;;;;;;;;;;5087948;28;20039;-61
2022/12/18 10:10:53;;;;;;;23.20;9.32;;;;;;;;;;5103201;28;20043;-61
2022/12/18 10:13:22;;;;;;;23.48;10.30;;;;;;;;;;5107116;28;20089;-61
2022/12/18 10:15:54;;;;;;;20.77;10.18;;;;;;;;;;5105619;28;20632;-60
2022/12/18 10:18:23;;;;;;;20.73;10.20;;;;;;;;;;5086410;28;20126;-61
2022/12/18 10:20:52;;;;;;;20.00;11.45;;;-2.00;99.90;;;;;;5084404;28;20036;-62
2022/12/18 10:23:24;;;;;;;19.65;11.05;;;;;;;;;;5104764;28;20034;-60
2022/12/18 10:26:00;;;;;;;21.23;9.68;;;;;;;;;;5106715;28;20080;-63
2022/12/18 10:28:27;;;;;;;13.68;7.28;;;;;;;;;;5093026;28;20069;-63
2022/12/18 10:30:53;;;;;;;19.77;9.93;;;;;;;;;;5066699;28;20083;-61
2022/12/18 10:33:21;;;;;;;15.18;7.43;;;;;;;;;;5070303;28;20037;-60
2022/12/18 10:35:48;;;;;;;18.23;8.80;;;;;;;;;;5067956;28;20105;-63
2022/12/18 10:38:17;;;;;;;21.90;8.35;;;;;;;;;;5071033;28;20044;-64
2022/12/18 10:41:18;;;;;;;17.42;9.45;;;-1.80;99.90;;;;;;5077857;28;20113;-61
2022/12/18 10:43:44;;;;;;;18.13;9.70;;;;;;;;;;5057987;28;20048;-63
2022/12/18 10:46:10;;;;;;;15.68;8.65;;;;;;;;;;5077008;28;20071;-63
2022/12/18 10:48:40;;;;;;;18.17;7.88;;;;;;;;;;5069038;28;20056;-63
2022/12/18 10:51:06;;;;;;;15.45;8.52;;;;;;;;;;5067946;28;20043;-62
2022/12/18 10:53:34;;;;;;;18.58;9.35;;;;;;;;;;5074466;28;20040;-60
2022/12/18 10:56:00;;;;;;;21.05;9.15;;;;;;;;;;5066665;28;20040;-64
2022/12/18 10:58:33;;;;;;;20.83;9.73;;;;;;;;;;5066542;28;20047;-64
2022/12/18 11:01:04;;;;;;;18.45;8.77;;;-1.80;99.90;;;;;;5068268;28;20051;-63
2022/12/18 11:03:32;;;;;;;15.77;8.10;;;;;;;;;;5054504;28;20049;-64
2022/12/18 11:06:02;;;;;;;17.50;8.95;;;;;;;;;;5067288;28;20040;-64
2022/12/18 11:08:28;;;;;;;15.77;9.48;;;;;;;;;;5068499;28;20536;-61
2022/12/18 11:10:54;;;;;;;18.15;9.10;;;;;;;;;;5071393;28;20122;-64
2022/12/18 11:13:21;;;;;;;18.35;7.70;;;;;;;;;;5081091;28;20513;-64
2022/12/18 11:15:48;;;;;;;19.05;9.88;;;;;;;;;;5082065;28;20044;-64
2022/12/18 11:18:33;;;;;;;14.45;7.95;;;;;;;;;;5080787;28;20047;-64
2022/12/18 11:21:07;;;;;;;15.55;7.97;;;;;;;;;;5081168;28;20540;-64
2022/12/18 11:23:34;;;;;;;13.10;7.53;;;;;;;;;;5077056;28;20406;-64
2022/12/18 11:26:02;;;;;;;18.13;8.68;;;;;;;;;;5071973;28;20075;-64
2022/12/18 11:28:41;;;;;;;14.48;8.60;;;;;;;;;;5072331;28;20052;-64
2022/12/18 11:31:10;;;;;;;18.25;8.10;;;;;;;;;;5093327;28;20056;-64
2022/12/18 11:33:37;;;;;;;16.15;7.50;;;;;;;;;;5069389;28;20052;-64
2022/12/18 11:36:04;;;;;;;15.45;7.55;;;;;;;;;;5091017;28;20039;-64
2022/12/18 11:38:31;;;;;;;16.10;8.02;;;;;;;;;;5097971;28;20051;-64
2022/12/18 11:40:57;;;;;;;18.35;8.65;;;;;;;;;;5087249;28;20085;-64
2022/12/18 11:43:41;;;;;;;16.95;8.48;;;;;;;;;;5087899;28;20028;-64
2022/12/18 11:46:17;;;;;;;13.50;7.13;;;;;;;;;;5074779;28;20040;-64
2022/12/18 11:48:58;;;;;;;13.25;6.80;;;;;;;;;;5087675;28;20059;-64
2022/12/18 11:51:30;;;;;;;15.27;6.72;;;;;;;;;;5083400;28;20119;-64
2022/12/18 11:53:57;;;;;;;11.07;4.95;;;;;;;;;;5070806;28;20159;-64
2022/12/18 11:56:26;;;;;;;14.77;7.40;;;;;;;;;;5078078;28;20147;-64
2022/12/18 11:59:10;;;;;;;13.27;7.18;;;;;;;;;;5084914;28;20048;-64
2022/12/18 12:01:43;;;;;;;7.70;4.97;;;;;;;;;;5068926;28;20047;-64
2022/12/18 12:04:17;;;;;;;15.45;6.97;;;;;;;;;;5069448;28;20043;-64
2022/12/18 12:06:51;;;;;;;16.33;7.60;;;;;;;;;;5068466;28;20347;-64
2022/12/18 12:09:23;;;;;;;10.02;6.68;;;;;;;;;;5065814;28;20052;-64
2022/12/18 12:11:49;;;;;;;12.20;7.30;;;;;;;;;;5085038;28;20367;-64
2022/12/18 12:14:29;;;;;;;10.48;6.00;;;-1.00;99.90;;;;;;5087123;28;20043;-64
2022/12/18 12:17:22;;;;;;;11.60;6.38;;;-1.00;99.90;;;;;;5086796;28;20082;-64
2022/12/18 12:19:53;;;;;;;12.63;7.22;;;;;;;;;;5068658;28;20048;-64
2022/12/18 12:22:28;;;;;;;9.57;5.65;;;;;;;;;;5086911;28;20036;-64
2022/12/18 12:25:13;;;;;;;12.65;6.28;;;;;;;;;;5086952;28;20101;-64
2022/12/18 12:27:39;;;;;;;11.67;6.27;;;;;;;;;;5104149;28;20070;-64
2022/12/18 12:30:08;;;;;;;10.60;6.10;;;;;;;;;;5091546;28;20359;-64
2022/12/18 12:32:34;;;;;;;13.20;5.50;;;;;;;;;;5084851;28;20058;-64
2022/12/18 12:35:00;;;;;;;10.52;5.97;;;;;;;;;;5080927;28;20078;-64
2022/12/18 12:37:59;;;;;;;10.15;5.60;;;-0.80;99.90;;;;;;5079208;28;20047;-62
2022/12/18 12:40:27;;;;;;;12.38;6.18;;;;;;;;;;5086642;28;20063;-62
2022/12/18 12:43:14;;;;;;;10.38;5.60;;;;;;;;;;5072593;28;20485;-63
2022/12/18 12:45:47;;;;;;;10.05;5.90;;;;;;;;;;5093892;28;20071;-63
2022/12/18 12:48:33;;;;;;;8.15;4.38;;;;;;;;;;5083978;28;20044;-63
2022/12/18 12:51:01;;;;;;;7.40;4.15;;;;;;;;;;5071288;28;20119;-63
2022/12/18 12:53:29;;;;;;;8.68;5.47;;;;;;;;;;5071063;28;20039;-63
2022/12/18 12:55:56;;;;;;;8.95;4.95;;;;;;;;;;5090702;28;20513;-61
2022/12/18 12:58:43;;;;;;;7.95;5.53;;;-0.40;99.90;;;;;;5089560;28;20043;-62
2022/12/18 13:01:23;;;;;;;7.28;4.22;;;;;;;;;;5090831;28;20512;-64
2022/12/18 13:04:03;;;;;;;8.07;3.85;;;;;;;;;;5072525;28;20054;-63
2022/12/18 13:06:48;;;;;;;11.32;4.72;;;;;;;;;;5082384;28;20051;-63
2022/12/18 13:09:14;;;;;;;8.48;4.90;;;;;;;;;;5097712;28;20042;-63
2022/12/18 13:14:34;;;;;;;9.52;4.63;;;-0.20;99.90;;;;;;5088906;28;20044;-61
2022/12/18 13:17:20;;;;;;;10.32;4.75;;;;;;;;;;5090842;28;20494;-63
2022/12/18 13:19:49;;;;;;;7.97;4.38;;;;;;;;;;5092300;28;20052;-62
2022/12/18 13:22:23;;;;;;;7.47;3.78;;;;;;;;;;5074925;28;20482;-61
2022/12/18 13:24:49;;;;;;;8.70;4.82;;;;;;;;;;5071955;28;20044;-63
2022/12/18 13:27:34;;;;;;;8.13;4.35;;;;;;;;;;5079797;28;20043;-63
2022/12/18 13:30:00;;;;;;;11.70;5.10;;;;;;;;;;5084042;28;20067;-63
2022/12/18 13:32:26;;;;;;;7.97;4.47;;;-0.30;99.90;;;;;;5071727;28;20047;-62
2022/12/18 13:35:19;;;;;;;9.90;4.05;;;-0.20;99.90;;;;;;5090210;28;20043;-62
2022/12/18 13:37:52;;;;;;;8.48;3.95;;;;;;;;;;5094517;28;20046;-63
2022/12/18 13:40:37;;;;;;;7.88;4.32;;;;;;;;;;5080102;28;20049;-60
2022/12/18 13:43:14;;;;;;;10.43;4.57;;;;;;;;;;5078258;28;20081;-62
2022/12/18 13:46:03;;;;;;;6.35;4.03;;;;;;;;;;5090075;28;20083;-64
2022/12/18 13:48:36;;;;;;;9.85;5.85;;;-0.30;99.90;;;;;;5054035;28;20052;-62
2022/12/18 13:51:05;;;;;;;6.85;4.25;;;;;;;;;;5073115;28;20048;-60
2022/12/18 13:53:36;;;;;;;9.85;4.72;;;-0.10;99.90;;;;;;5071413;28;20047;-62
2022/12/18 13:56:03;;;;;;;7.65;4.38;;;;;;;;;;5083811;28;20122;-61
2022/12/18 13:58:29;;;;;;;9.05;4.70;;;;;;;;;;5086738;28;20044;-63
2022/12/18 14:00:55;;;;;;;8.95;4.95;;;;;;;;;;5090851;28;20051;-64
2022/12/18 14:03:23;;;;;;;8.40;5.60;;;;;;;;;;5089768;28;20048;-63
2022/12/18 14:06:01;;;;;;;8.15;5.05;;;-0.40;99.90;;;;;;5077519;28;20036;-63
2022/12/18 14:08:30;;;;;;;8.73;4.50;;;;;;;;;;5102176;28;20043;-62
2022/12/18 14:10:56;;;;;;;14.60;5.78;;;;;;;;;;5085154;28;20042;-61
2022/12/18 14:13:28;;;;;;;7.45;4.20;;;;;;;;;;5103940;28;20043;-61
2022/12/18 14:15:56;;;;;;;8.07;4.97;;;;;;;;;;5089164;28;20088;-62
2022/12/18 14:18:39;;;;;;;11.38;4.55;;;;;;;;;;5099970;28;20052;-60
2022/12/18 14:21:06;;;;;;;8.05;4.38;;;;;;;;;;5070806;28;20071;-62
2022/12/18 14:23:36;;;;;;;9.25;4.43;;;;;;;;;;5089124;28;20050;-63
2022/12/18 14:26:03;;;;;;;7.78;4.28;;;;;;;;;;5087137;28;20044;-60
2022/12/18 14:28:30;;;;;;;7.45;4.63;;;;;;;;;;5087299;28;20083;-62
2022/12/18 14:30:56;;;;;;;9.45;5.05;;;;;;;;;;5068921;28;20143;-61
2022/12/18 14:33:26;;;;;;;9.43;4.30;;;;;;;;;;5088240;28;20610;-60